Pittsburg, CA (94565)

9:29 AM PST on February 28, 2015 (GMT -0800)
Pittsburg's Delta View Golf Course | Change Station
CLOSE
Current Station
Personal Weather Station
Location: Pittsburg, CA
Elevation: 69 ft
Nearby Weather Stations

Elev 69 ft 38.01 °N, 121.91 °W | Updated 24 seconds ago

Partly Cloudy
Partly Cloudy
54.7 °F
Feels Like 54.7 °F
N
1.6
Wind Variable Wind from SW
Gusts 10.4 mph

Today
High -- | Low -- °F
--% Chance of Precip.
Yesterday
High -- | Low -- °F
Precip. -- in
6:40 AM 5:59 PM
Waxing Gibbous, 79% visible
Pressure 29.74 in
Visibility 10.0 miles
Clouds Few 3500 ft
Scattered Clouds 8000 ft
Dew Point 43 °F
Humidity 64%
Rainfall 0.00 in
Snow Depth Not available.
UV 2 out of 12
Pollen 7.20 out of 12
Air Quality Not available.
Flu Activity Not available.
METAR KCCR 281653Z COR 20005KT 10SM FEW035 SCT080 12/06 A2978 RMK AO2 SLP071 T01170061

More Conditions Fewer Conditions

Pressure 29.74 in
Visibility 10.0 miles
Clouds Few 3500 ft
Scattered Clouds 8000 ft
Dew Point 43 °F
Humidity 64%
Rainfall 0.00 in
Snow Depth Not available.
UV 2 out of 12
Pollen 7.20 out of 12
Air Quality Not available.
Flu Activity Not available.
METAR KCCR 281653Z COR 20005KT 10SM FEW035 SCT080 12/06 A2978 RMK AO2 SLP071 T01170061

More Conditions Fewer Conditions

10-Day Weather Forecast

Almanac

Astronomy

Feb. 28, 2015 Rise Set
Actual Time
Civil Twilight
Nautical Twilight
Astronomical Twilight
Moon
Length of Visible Light
Length of Day
Tomorrow will be .
, % of the Moon is Illuminated

Today's Extremes

State Highs State Lows

Community

WunderPhotos

Upload Photos

1,801,101 photos uploaded!

WunderBlogs® & News

Nearby

Air Quality

  Air Quality AQ Index Pollutant
Not available.

Snow Depth

Station Depth Elevation

Earthquake Activity

City Distance Mag. Time & Date
Minimum magnitude displayed is 2.5.

Coastal Water Temperatures

Place Temperature

Nearby Weather Stations